Wan Hai 266 — 9VDB5 — position and weather

sailwx.info

Track history (hours):
 
Tides and Currents Weather Stations Pressure Air Temp Water Temp Dewpoint Dewpoint Depression Visibility Wind Speed Wind Dir Waves Ship Positions

Wan Hai 266

Last reported at 2018-Jun-16 21:06 UTC. Time now 2018-Jun-19 02:41 UTC.
Position N 22°20' E 114°07'.

Length 198 m; draft 8 m.

Type: Ship. MMSI: 564489000.

Date/timePositionNaut miles runAvg speedWind from/ knotsBaromVisibWave heightAir tempDewpointWater temp
2018-Jun-16 21:06N 22°20' E 114°07'31315.6
2018-Jun-16 01:05N 22°30' E 119°46'116.6
2018-Jun-16 01:00N 22°30' E 119°47'815.6
2018-Jun-16 00:30N 22°31' E 119°56'611.5
2018-Jun-16 00:00N 22°32' E 120°02'510.1
2018-Jun-15 23:30N 22°33' E 120°07'611.1
2018-Jun-15 23:00N 22°33' E 120°13'510.6
2018-Jun-15 22:30N 22°33' E 120°19'1 2.6
2018-Jun-15 22:00N 22°34' E 120°18'0 0.7
2018-Jun-15 21:18N 22°35' E 120°18'0 0.0
2018-Jun-15 21:00N 22°35' E 120°18'0 0.0
2018-Jun-15 20:30N 22°35' E 120°18'0 0.0
2018-Jun-15 19:42N 22°35' E 120°18'0 0.0
2018-Jun-15 19:24N 22°35' E 120°18'0 0.0
2018-Jun-15 19:00N 22°35' E 120°18'0 0.0
2018-Jun-15 18:30N 22°35' E 120°18'0 0.0
2018-Jun-15 17:48N 22°35' E 120°18'0 0.0
2018-Jun-15 17:30N 22°35' E 120°18'0 0.0
2018-Jun-15 17:00N 22°35' E 120°18'0 0.0
2018-Jun-15 16:30N 22°35' E 120°18'0 0.0
2018-Jun-15 16:00N 22°35' E 120°18'2 3.2
2018-Jun-15 15:30N 22°36' E 120°17'4 8.2
2018-Jun-15 15:00N 22°37' E 120°13'2 4.7
2018-Jun-15 14:30N 22°38' E 120°11'0 0.1
2018-Jun-15 14:00N 22°38' E 120°11'0 0.7
2018-Jun-15 13:30N 22°39' E 120°10'0 0.7
2018-Jun-15 13:00N 22°39' E 120°11'1 1.1
2018-Jun-15 12:30N 22°39' E 120°11'0 1.0
2018-Jun-15 12:00N 22°39' E 120°12'0 0.9
2018-Jun-15 11:30N 22°39' E 120°11'0 0.2
2018-Jun-15 11:00N 22°40' E 120°11'1 1.4
2018-Jun-15 10:30N 22°39' E 120°11'3 6.2
2018-Jun-15 10:00N 22°36' E 120°10'1 2.9
2018-Jun-15 09:30N 22°35' E 120°10'1 1.0
2018-Jun-15 09:00N 22°35' E 120°10'0 0.7
2018-Jun-15 08:30N 22°35' E 120°11'0 0.7
2018-Jun-15 08:00N 22°36' E 120°11'0 0.7
2018-Jun-15 07:30N 22°36' E 120°10'0 0.6
2018-Jun-15 07:00N 22°36' E 120°10'0 0.9
2018-Jun-15 06:30N 22°36' E 120°10'1 1.2
2018-Jun-15 06:00N 22°37' E 120°10'1 1.5
2018-Jun-15 05:30N 22°38' E 120°10'1 1.4
2018-Jun-15 05:00N 22°38' E 120°10'1 1.8
2018-Jun-15 04:30N 22°39' E 120°10'1 2.1
2018-Jun-15 03:58N 22°40' E 120°09'1 1.9
2018-Jun-15 03:30N 22°41' E 120°09'1 1.8
2018-Jun-15 03:00N 22°42' E 120°09'2 3.6
2018-Jun-15 02:30N 22°41' E 120°10'2 4.6
2018-Jun-15 02:00N 22°39' E 120°11'1 1.1
2018-Jun-15 01:30N 22°39' E 120°12'1 1.4
2018-Jun-15 01:00N 22°40' E 120°11'1 1.5
2018-Jun-15 00:30N 22°40' E 120°11'1 1.9
2018-Jun-15 00:00N 22°41' E 120°10'1 1.1
2018-Jun-14 23:30N 22°41' E 120°10'1 1.8
2018-Jun-14 23:00N 22°42' E 120°10'1 1.7
2018-Jun-14 22:30N 22°41' E 120°10'1 2.6
2018-Jun-14 22:00N 22°43' E 120°10'1 1.1
2018-Jun-14 21:30N 22°42' E 120°10'1 1.1
2018-Jun-14 21:00N 22°43' E 120°10'1 2.1
2018-Jun-14 20:30N 22°42' E 120°10'1 1.8
2018-Jun-14 20:00N 22°41' E 120°10'1 1.7
2018-Jun-14 19:30N 22°40' E 120°10'1 1.9
2018-Jun-14 19:00N 22°39' E 120°09'1 1.5
2018-Jun-14 18:29N 22°38' E 120°09'2 3.5
2018-Jun-14 18:00N 22°40' E 120°10'2 3.8
2018-Jun-14 17:30N 22°41' E 120°12'0 0.7
2018-Jun-14 16:59N 22°41' E 120°11'1 2.1
2018-Jun-14 16:30N 22°40' E 120°10'1 2.4
2018-Jun-14 16:00N 22°39' E 120°10'0 0.6
2018-Jun-14 15:30N 22°39' E 120°09'1 2.1
2018-Jun-14 15:00N 22°40' E 120°10'1 1.9
2018-Jun-14 14:30N 22°41' E 120°10'1 1.6
2018-Jun-14 14:00N 22°42' E 120°10'1 2.0
2018-Jun-14 13:30N 22°43' E 120°11'0 0.6
2018-Jun-14 13:00N 22°43' E 120°11'1 2.2
2018-Jun-14 12:30N 22°42' E 120°10'1 1.7
2018-Jun-14 11:59N 22°41' E 120°09'1 1.4
2018-Jun-14 11:30N 22°41' E 120°09'1 1.4
2018-Jun-14 11:00N 22°40' E 120°10'1 1.7
2018-Jun-14 10:30N 22°39' E 120°10'1 2.7
2018-Jun-14 09:59N 22°40' E 120°12'1 2.1
2018-Jun-14 09:30N 22°40' E 120°13'0 0.1
2018-Jun-14 09:00N 22°40' E 120°13'1 3.0
2018-Jun-14 08:30N 22°41' E 120°12'611.1
2018-Jun-14 08:00N 22°44' E 120°06'511.0
2018-Jun-14 07:30N 22°48' E 120°02'611.4
2018-Jun-14 07:00N 22°53' E 119°59'  
2018-Jun-10 13:54N 33°20' E 134°60'25317.7
2018-Jun-09 23:37N 35°03' E 139°40'219.5
2018-Jun-09 23:30N 35°04' E 139°42'816.6
2018-Jun-09 23:00N 35°12' E 139°46'611.1
2018-Jun-09 22:30N 35°17' E 139°45'612.6
2018-Jun-09 22:00N 35°23' E 139°42'815.4
2018-Jun-09 21:30N 35°28' E 139°49'612.0
2018-Jun-09 21:00N 35°34' E 139°48'3 5.1
2018-Jun-09 20:29N 35°36' E 139°46'0 0.0
2018-Jun-09 20:00N 35°36' E 139°46'0 0.0
2018-Jun-09 19:27N 35°36' E 139°46'0 0.0
2018-Jun-09 18:57N 35°36' E 139°46'0 0.0
2018-Jun-09 18:27N 35°36' E 139°46'0 0.0
2018-Jun-09 17:48N 35°36' E 139°46'0 0.0
2018-Jun-09 17:30N 35°36' E 139°46'0 0.0
2018-Jun-09 16:54N 35°36' E 139°46'0 0.0
2018-Jun-09 14:45N 35°36' E 139°46'0 0.0
2018-Jun-09 14:27N 35°36' E 139°46'0 0.0
2018-Jun-09 13:57N 35°36' E 139°46'0 0.0
2018-Jun-09 13:21N 35°36' E 139°46'0 0.0
2018-Jun-09 12:54N 35°36' E 139°46'0 0.0
2018-Jun-09 12:21N 35°36' E 139°46'0 0.0
2018-Jun-09 11:42N 35°36' E 139°46'0 0.0
2018-Jun-09 11:30N 35°36' E 139°46'0 0.0
2018-Jun-09 11:00N 35°36' E 139°46'0 0.1
2018-Jun-09 10:11N 35°36' E 139°46'0 2.4
2018-Jun-09 09:58N 35°36' E 139°47'510.1
2018-Jun-09 09:28N 35°33' E 139°52'4 7.9
2018-Jun-09 09:00N 35°29' E 139°52'5 9.4
2018-Jun-09 08:30N 35°26' E 139°47'5 9.5
2018-Jun-09 08:01N 35°27' E 139°41'0 0.4
2018-Jun-09 07:30N 35°27' E 139°41'0 0.1
2018-Jun-09 07:00N 35°27' E 139°41'0 0.0
2018-Jun-09 06:30N 35°27' E 139°41'0 0.1
2018-Jun-09 06:00N 35°27' E 139°41'0 0.0
2018-Jun-09 05:30N 35°27' E 139°41'0 0.0
2018-Jun-09 05:00N 35°27' E 139°41'0 0.0
2018-Jun-09 04:30N 35°27' E 139°41'0 0.0
2018-Jun-09 04:00N 35°27' E 139°41'0 0.0
2018-Jun-09 03:30N 35°27' E 139°41'0 0.0
2018-Jun-09 03:00N 35°27' E 139°41'0 0.0
2018-Jun-09 02:30N 35°27' E 139°41'0 0.0
2018-Jun-09 02:00N 35°27' E 139°41'0 0.0
2018-Jun-09 01:30N 35°27' E 139°41'0 0.0
2018-Jun-09 01:00N 35°27' E 139°41'0 0.1
2018-Jun-09 00:30N 35°27' E 139°41'0 0.1
2018-Jun-09 00:00N 35°27' E 139°41'0 0.0
2018-Jun-08 23:30N 35°27' E 139°41'0 0.2
2018-Jun-08 23:00N 35°27' E 139°41'2 4.0
2018-Jun-08 22:30N 35°25' E 139°43'3 5.1
2018-Jun-08 22:00N 35°23' E 139°43'4 8.5
2018-Jun-08 21:30N 35°19' E 139°44'611.3
2018-Jun-08 21:00N 35°14' E 139°47'5 9.2
2018-Jun-08 20:30N 35°09' E 139°47'3 5.7
2018-Jun-08 20:00N 35°06' E 139°46'2 4.8
2018-Jun-08 19:30N 35°04' E 139°45'2 4.2
2018-Jun-08 18:58N 35°02' E 139°43'238 7.2
2018-Jun-07 09:56N 33°32' E 135°17'817.6
2018-Jun-07 09:30N 33°38' E 135°11'917.5
2018-Jun-07 09:00N 33°45' E 135°05'917.2
2018-Jun-07 08:30N 33°53' E 134°60'917.3
2018-Jun-07 08:01N 34°01' E 134°59'816.6
2018-Jun-07 07:30N 34°09' E 134°58'612.3
2018-Jun-07 07:00N 34°16' E 134°58'815.2
2018-Jun-07 06:30N 34°23' E 135°01'917.3
2018-Jun-07 06:00N 34°29' E 135°08'917.1
2018-Jun-07 05:31N 34°36' E 135°15'510.3
2018-Jun-07 05:01N 34°41' E 135°15'0 0.3
2018-Jun-07 04:29N 34°41' E 135°15'0 0.0
2018-Jun-07 03:56N 34°41' E 135°15'0 0.0
2018-Jun-07 03:23N 34°41' E 135°15'0 0.0
2018-Jun-07 02:59N 34°41' E 135°15'0 0.0
2018-Jun-07 02:20N 34°41' E 135°15'0 0.0
2018-Jun-07 01:44N 34°41' E 135°15'0 0.0
2018-Jun-07 01:29N 34°41' E 135°15'0 0.0
2018-Jun-07 00:56N 34°41' E 135°15'0 0.0
2018-Jun-07 00:26N 34°41' E 135°15'0 0.0
2018-Jun-06 23:47N 34°41' E 135°15'0 0.0
2018-Jun-06 23:26N 34°41' E 135°15'0 0.1
2018-Jun-06 22:54N 34°41' E 135°15'1 2.5
2018-Jun-06 22:29N 34°40' E 135°15'2 5.1
2018-Jun-06 22:00N 34°38' E 135°17'510.4
2018-Jun-06 21:31N 34°38' E 135°23'  
Track history (hours):
 
Tides and Currents Weather Stations Pressure Air Temp Water Temp Dewpoint Dewpoint Depression Visibility Wind Speed Wind Dir Waves Ship Positions

Wan Hai 266

Last reported at 2018-Jun-16 21:06 UTC. Time now 2018-Jun-19 02:41 UTC.
Position N 22°20' E 114°07'.

Length 198 m; draft 8 m.

Type: Ship. MMSI: 564489000.

Date/timePositionNaut miles runAvg speedWind from/ knotsBaromVisibWave heightAir tempDewpointWater temp
2018-Jun-16 21:06N 22°20' E 114°07'31315.6
2018-Jun-16 01:05N 22°30' E 119°46'116.6
2018-Jun-16 01:00N 22°30' E 119°47'815.6
2018-Jun-16 00:30N 22°31' E 119°56'611.5
2018-Jun-16 00:00N 22°32' E 120°02'510.1
2018-Jun-15 23:30N 22°33' E 120°07'611.1
2018-Jun-15 23:00N 22°33' E 120°13'510.6
2018-Jun-15 22:30N 22°33' E 120°19'1 2.6
2018-Jun-15 22:00N 22°34' E 120°18'0 0.7
2018-Jun-15 21:18N 22°35' E 120°18'0 0.0
2018-Jun-15 21:00N 22°35' E 120°18'0 0.0
2018-Jun-15 20:30N 22°35' E 120°18'0 0.0
2018-Jun-15 19:42N 22°35' E 120°18'0 0.0
2018-Jun-15 19:24N 22°35' E 120°18'0 0.0
2018-Jun-15 19:00N 22°35' E 120°18'0 0.0
2018-Jun-15 18:30N 22°35' E 120°18'0 0.0
2018-Jun-15 17:48N 22°35' E 120°18'0 0.0
2018-Jun-15 17:30N 22°35' E 120°18'0 0.0
2018-Jun-15 17:00N 22°35' E 120°18'0 0.0
2018-Jun-15 16:30N 22°35' E 120°18'0 0.0
2018-Jun-15 16:00N 22°35' E 120°18'2 3.2
2018-Jun-15 15:30N 22°36' E 120°17'4 8.2
2018-Jun-15 15:00N 22°37' E 120°13'2 4.7
2018-Jun-15 14:30N 22°38' E 120°11'0 0.1
2018-Jun-15 14:00N 22°38' E 120°11'0 0.7
2018-Jun-15 13:30N 22°39' E 120°10'0 0.7
2018-Jun-15 13:00N 22°39' E 120°11'1 1.1
2018-Jun-15 12:30N 22°39' E 120°11'0 1.0
2018-Jun-15 12:00N 22°39' E 120°12'0 0.9
2018-Jun-15 11:30N 22°39' E 120°11'0 0.2
2018-Jun-15 11:00N 22°40' E 120°11'1 1.4
2018-Jun-15 10:30N 22°39' E 120°11'3 6.2
2018-Jun-15 10:00N 22°36' E 120°10'1 2.9
2018-Jun-15 09:30N 22°35' E 120°10'1 1.0
2018-Jun-15 09:00N 22°35' E 120°10'0 0.7
2018-Jun-15 08:30N 22°35' E 120°11'0 0.7
2018-Jun-15 08:00N 22°36' E 120°11'0 0.7
2018-Jun-15 07:30N 22°36' E 120°10'0 0.6
2018-Jun-15 07:00N 22°36' E 120°10'0 0.9
2018-Jun-15 06:30N 22°36' E 120°10'1 1.2
2018-Jun-15 06:00N 22°37' E 120°10'1 1.5
2018-Jun-15 05:30N 22°38' E 120°10'1 1.4
2018-Jun-15 05:00N 22°38' E 120°10'1 1.8
2018-Jun-15 04:30N 22°39' E 120°10'1 2.1
2018-Jun-15 03:58N 22°40' E 120°09'1 1.9
2018-Jun-15 03:30N 22°41' E 120°09'1 1.8
2018-Jun-15 03:00N 22°42' E 120°09'2 3.6
2018-Jun-15 02:30N 22°41' E 120°10'2 4.6
2018-Jun-15 02:00N 22°39' E 120°11'1 1.1
2018-Jun-15 01:30N 22°39' E 120°12'1 1.4
2018-Jun-15 01:00N 22°40' E 120°11'1 1.5
2018-Jun-15 00:30N 22°40' E 120°11'1 1.9
2018-Jun-15 00:00N 22°41' E 120°10'1 1.1
2018-Jun-14 23:30N 22°41' E 120°10'1 1.8
2018-Jun-14 23:00N 22°42' E 120°10'1 1.7
2018-Jun-14 22:30N 22°41' E 120°10'1 2.6
2018-Jun-14 22:00N 22°43' E 120°10'1 1.1
2018-Jun-14 21:30N 22°42' E 120°10'1 1.1
2018-Jun-14 21:00N 22°43' E 120°10'1 2.1
2018-Jun-14 20:30N 22°42' E 120°10'1 1.8
2018-Jun-14 20:00N 22°41' E 120°10'1 1.7
2018-Jun-14 19:30N 22°40' E 120°10'1 1.9
2018-Jun-14 19:00N 22°39' E 120°09'1 1.5
2018-Jun-14 18:29N 22°38' E 120°09'2 3.5
2018-Jun-14 18:00N 22°40' E 120°10'2 3.8
2018-Jun-14 17:30N 22°41' E 120°12'0 0.7
2018-Jun-14 16:59N 22°41' E 120°11'1 2.1
2018-Jun-14 16:30N 22°40' E 120°10'1 2.4
2018-Jun-14 16:00N 22°39' E 120°10'0 0.6
2018-Jun-14 15:30N 22°39' E 120°09'1 2.1
2018-Jun-14 15:00N 22°40' E 120°10'1 1.9
2018-Jun-14 14:30N 22°41' E 120°10'1 1.6
2018-Jun-14 14:00N 22°42' E 120°10'1 2.0
2018-Jun-14 13:30N 22°43' E 120°11'0 0.6
2018-Jun-14 13:00N 22°43' E 120°11'1 2.2
2018-Jun-14 12:30N 22°42' E 120°10'1 1.7
2018-Jun-14 11:59N 22°41' E 120°09'1 1.4
2018-Jun-14 11:30N 22°41' E 120°09'1 1.4
2018-Jun-14 11:00N 22°40' E 120°10'1 1.7
2018-Jun-14 10:30N 22°39' E 120°10'1 2.7
2018-Jun-14 09:59N 22°40' E 120°12'1 2.1
2018-Jun-14 09:30N 22°40' E 120°13'0 0.1
2018-Jun-14 09:00N 22°40' E 120°13'1 3.0
2018-Jun-14 08:30N 22°41' E 120°12'611.1
2018-Jun-14 08:00N 22°44' E 120°06'511.0
2018-Jun-14 07:30N 22°48' E 120°02'611.4
2018-Jun-14 07:00N 22°53' E 119°59'  
2018-Jun-10 13:54N 33°20' E 134°60'25317.7
2018-Jun-09 23:37N 35°03' E 139°40'219.5
2018-Jun-09 23:30N 35°04' E 139°42'816.6
2018-Jun-09 23:00N 35°12' E 139°46'611.1
2018-Jun-09 22:30N 35°17' E 139°45'612.6
2018-Jun-09 22:00N 35°23' E 139°42'815.4
2018-Jun-09 21:30N 35°28' E 139°49'612.0
2018-Jun-09 21:00N 35°34' E 139°48'3 5.1
2018-Jun-09 20:29N 35°36' E 139°46'0 0.0
2018-Jun-09 20:00N 35°36' E 139°46'0 0.0
2018-Jun-09 19:27N 35°36' E 139°46'0 0.0
2018-Jun-09 18:57N 35°36' E 139°46'0 0.0
2018-Jun-09 18:27N 35°36' E 139°46'0 0.0
2018-Jun-09 17:48N 35°36' E 139°46'0 0.0
2018-Jun-09 17:30N 35°36' E 139°46'0 0.0
2018-Jun-09 16:54N 35°36' E 139°46'0 0.0
2018-Jun-09 14:45N 35°36' E 139°46'0 0.0
2018-Jun-09 14:27N 35°36' E 139°46'0 0.0
2018-Jun-09 13:57N 35°36' E 139°46'0 0.0
2018-Jun-09 13:21N 35°36' E 139°46'0 0.0
2018-Jun-09 12:54N 35°36' E 139°46'0 0.0
2018-Jun-09 12:21N 35°36' E 139°46'0 0.0
2018-Jun-09 11:42N 35°36' E 139°46'0 0.0
2018-Jun-09 11:30N 35°36' E 139°46'0 0.0
2018-Jun-09 11:00N 35°36' E 139°46'0 0.1
2018-Jun-09 10:11N 35°36' E 139°46'0 2.4
2018-Jun-09 09:58N 35°36' E 139°47'510.1
2018-Jun-09 09:28N 35°33' E 139°52'4 7.9
2018-Jun-09 09:00N 35°29' E 139°52'5 9.4
2018-Jun-09 08:30N 35°26' E 139°47'5 9.5
2018-Jun-09 08:01N 35°27' E 139°41'0 0.4
2018-Jun-09 07:30N 35°27' E 139°41'0 0.1
2018-Jun-09 07:00N 35°27' E 139°41'0 0.0
2018-Jun-09 06:30N 35°27' E 139°41'0 0.1
2018-Jun-09 06:00N 35°27' E 139°41'0 0.0
2018-Jun-09 05:30N 35°27' E 139°41'0 0.0
2018-Jun-09 05:00N 35°27' E 139°41'0 0.0
2018-Jun-09 04:30N 35°27' E 139°41'0 0.0
2018-Jun-09 04:00N 35°27' E 139°41'0 0.0
2018-Jun-09 03:30N 35°27' E 139°41'0 0.0
2018-Jun-09 03:00N 35°27' E 139°41'0 0.0
2018-Jun-09 02:30N 35°27' E 139°41'0 0.0
2018-Jun-09 02:00N 35°27' E 139°41'0 0.0
2018-Jun-09 01:30N 35°27' E 139°41'0 0.0
2018-Jun-09 01:00N 35°27' E 139°41'0 0.1
2018-Jun-09 00:30N 35°27' E 139°41'0 0.1
2018-Jun-09 00:00N 35°27' E 139°41'0 0.0
2018-Jun-08 23:30N 35°27' E 139°41'0 0.2
2018-Jun-08 23:00N 35°27' E 139°41'2 4.0
2018-Jun-08 22:30N 35°25' E 139°43'3 5.1
2018-Jun-08 22:00N 35°23' E 139°43'4 8.5
2018-Jun-08 21:30N 35°19' E 139°44'611.3
2018-Jun-08 21:00N 35°14' E 139°47'5 9.2
2018-Jun-08 20:30N 35°09' E 139°47'3 5.7
2018-Jun-08 20:00N 35°06' E 139°46'2 4.8
2018-Jun-08 19:30N 35°04' E 139°45'2 4.2
2018-Jun-08 18:58N 35°02' E 139°43'238 7.2
2018-Jun-07 09:56N 33°32' E 135°17'817.6
2018-Jun-07 09:30N 33°38' E 135°11'917.5
2018-Jun-07 09:00N 33°45' E 135°05'917.2
2018-Jun-07 08:30N 33°53' E 134°60'917.3
2018-Jun-07 08:01N 34°01' E 134°59'816.6
2018-Jun-07 07:30N 34°09' E 134°58'612.3
2018-Jun-07 07:00N 34°16' E 134°58'815.2
2018-Jun-07 06:30N 34°23' E 135°01'917.3
2018-Jun-07 06:00N 34°29' E 135°08'917.1
2018-Jun-07 05:31N 34°36' E 135°15'510.3
2018-Jun-07 05:01N 34°41' E 135°15'0 0.3
2018-Jun-07 04:29N 34°41' E 135°15'0 0.0
2018-Jun-07 03:56N 34°41' E 135°15'0 0.0
2018-Jun-07 03:23N 34°41' E 135°15'0 0.0
2018-Jun-07 02:59N 34°41' E 135°15'0 0.0
2018-Jun-07 02:20N 34°41' E 135°15'0 0.0
2018-Jun-07 01:44N 34°41' E 135°15'0 0.0
2018-Jun-07 01:29N 34°41' E 135°15'0 0.0
2018-Jun-07 00:56N 34°41' E 135°15'0 0.0
2018-Jun-07 00:26N 34°41' E 135°15'0 0.0
2018-Jun-06 23:47N 34°41' E 135°15'0 0.0
2018-Jun-06 23:26N 34°41' E 135°15'0 0.1
2018-Jun-06 22:54N 34°41' E 135°15'1 2.5
2018-Jun-06 22:29N 34°40' E 135°15'2 5.1
2018-Jun-06 22:00N 34°38' E 135°17'510.4
2018-Jun-06 21:31N 34°38' E 135°23'  

Dump ship's entire track history